Terminal Aerodrome Forecast
Issued by NWS

Home | Current Version | Previous Version | Text Only | Print | Product List | Glossary On
Versions: 1 2 3 4 5 6 7 8 9 10 11 12 13 14 15 16 17 18
367
FTUS43 KDLH 091027 AAA
TAFHIB
TAF AMD
KHIB 091027Z 0910/1006 32016G20KT P6SM OVC015
     FM091200 33014G20KT P6SM SCT020
     FM091500 34015G22KT P6SM SCT050
     FM100100 33012KT P6SM SCT120=

USA.gov is the U.S. government's official web portal to all federal, state and local government web resources and services.